createdAt,value
2019-02-21T00:01:54.159Z,16.30
2019-02-21T00:04:23.155Z,18.93
2019-02-21T00:06:52.087Z,18.47
2019-02-21T00:09:20.549Z,18.50
2019-02-21T00:11:49.113Z,20.70
2019-02-21T00:14:17.579Z,18.83
2019-02-21T00:16:46.075Z,20.33
2019-02-21T00:19:14.527Z,20.53
2019-02-21T00:21:43.015Z,19.07
2019-02-21T00:24:11.567Z,18.97
2019-02-21T00:26:40.201Z,18.97
2019-02-21T00:29:09.012Z,18.33
2019-02-21T00:31:39.897Z,17.50
2019-02-21T00:34:07.796Z,17.23
2019-02-21T00:36:36.573Z,17.77
2019-02-21T00:39:06.698Z,17.17
2019-02-21T00:41:35.395Z,16.50
2019-02-21T00:44:04.167Z,17.00
2019-02-21T00:46:32.818Z,17.33
2019-02-21T00:49:01.408Z,17.23
2019-02-21T00:51:30.193Z,16.67
2019-02-21T00:53:59.157Z,17.23
2019-02-21T00:56:27.859Z,15.80
2019-02-21T00:58:56.483Z,17.07
2019-02-21T01:01:25.083Z,16.73
2019-02-21T01:03:53.656Z,17.07
2019-02-21T01:06:22.284Z,15.53
2019-02-21T01:08:51.026Z,15.87
2019-02-21T01:11:19.727Z,16.30
2019-02-21T01:13:48.397Z,15.23
2019-02-21T01:16:16.933Z,15.10
2019-02-21T01:18:45.565Z,15.63
2019-02-21T01:21:14.221Z,15.73
2019-02-21T01:23:42.851Z,14.33
2019-02-21T01:26:11.594Z,15.20
2019-02-21T01:28:40.361Z,14.20
2019-02-21T01:31:08.987Z,15.43
2019-02-21T01:33:37.506Z,14.33
2019-02-21T01:36:08.427Z,15.23
2019-02-21T01:38:36.954Z,13.97
2019-02-21T01:41:05.667Z,13.30
2019-02-21T01:43:34.274Z,14.30
2019-02-21T01:46:03.033Z,14.13
2019-02-21T01:48:31.667Z,14.53
2019-02-21T01:51:00.240Z,17.17
2019-02-21T01:53:28.737Z,15.00
2019-02-21T01:55:57.330Z,14.97
2019-02-21T01:58:26.102Z,14.47
2019-02-21T02:00:54.934Z,14.30
2019-02-21T02:03:23.556Z,14.83
2019-02-21T02:05:52.280Z,14.17
2019-02-21T02:08:20.972Z,15.37
2019-02-21T02:10:49.492Z,15.90
2019-02-21T02:13:24.681Z,15.07
2019-02-21T02:15:48.475Z,14.37
2019-02-21T02:18:17.079Z,15.00
2019-02-21T02:20:45.635Z,15.43
2019-02-21T02:23:14.207Z,14.83
2019-02-21T02:25:42.838Z,16.43
2019-02-21T02:28:11.565Z,17.13
2019-02-21T02:30:40.231Z,15.87
2019-02-21T02:33:08.815Z,15.17
2019-02-21T02:35:37.526Z,15.53
2019-02-21T02:38:06.221Z,15.73
2019-02-21T02:40:34.809Z,16.67
2019-02-21T02:43:03.461Z,15.60
2019-02-21T02:45:32.204Z,16.33
2019-02-21T02:48:00.766Z,17.07
2019-02-21T02:50:29.298Z,15.90
2019-02-21T02:52:57.939Z,17.13
2019-02-21T02:55:26.583Z,17.30
2019-02-21T02:57:55.146Z,18.60
2019-02-21T03:00:23.792Z,16.73
2019-02-21T03:02:52.370Z,18.47
2019-02-21T03:05:21.029Z,16.90
2019-02-21T03:07:49.629Z,17.67
2019-02-21T03:10:18.282Z,17.80
2019-02-21T03:12:46.910Z,18.93
2019-02-21T03:15:15.545Z,18.87
2019-02-21T03:17:44.544Z,18.17
2019-02-21T03:20:13.324Z,20.57
2019-02-21T03:22:41.901Z,19.80
2019-02-21T03:25:10.599Z,20.23
2019-02-21T03:27:39.187Z,20.07
2019-02-21T03:30:12.272Z,20.33
2019-02-21T03:32:40.343Z,18.97
2019-02-21T03:35:09.534Z,19.23
2019-02-21T03:37:38.144Z,18.63
2019-02-21T03:40:09.063Z,19.47
2019-02-21T03:42:37.739Z,19.40
2019-02-21T03:45:11.831Z,18.63
2019-02-21T03:47:40.469Z,20.57
2019-02-21T03:50:11.204Z,20.17
2019-02-21T03:52:39.900Z,19.80
2019-02-21T03:55:09.176Z,20.70
2019-02-21T03:57:37.886Z,19.83
2019-02-21T04:00:11.360Z,20.93
2019-02-21T04:02:40.052Z,20.10
2019-02-21T04:05:09.005Z,20.77
2019-02-21T04:07:37.623Z,22.87
2019-02-21T04:10:08.483Z,17.57
2019-02-21T04:12:37.556Z,20.80
2019-02-21T04:15:08.743Z,18.67
2019-02-21T04:17:37.250Z,19.70
2019-02-21T04:20:07.131Z,17.03
2019-02-21T04:22:35.739Z,20.97
2019-02-21T04:25:05.702Z,20.83
2019-02-21T04:27:34.233Z,20.90
2019-02-21T04:30:02.909Z,21.37
2019-02-21T04:32:31.533Z,21.60
2019-02-21T04:35:00.338Z,21.27
2019-02-21T04:37:29.077Z,22.30
2019-02-21T04:39:57.604Z,20.90
2019-02-21T04:42:26.326Z,21.40
2019-02-21T04:44:54.874Z,21.93
2019-02-21T04:47:23.602Z,20.73
2019-02-21T04:49:52.624Z,21.93
2019-02-21T04:52:21.249Z,22.90
2019-02-21T04:54:49.873Z,21.00
2019-02-21T04:57:18.444Z,22.17
2019-02-21T04:59:47.113Z,21.77
2019-02-21T05:02:15.814Z,21.73
2019-02-21T05:04:44.454Z,25.37
2019-02-21T05:07:12.996Z,20.77
2019-02-21T05:09:41.564Z,24.47
2019-02-21T05:12:10.339Z,24.87
2019-02-21T05:14:38.944Z,23.40
2019-02-21T05:17:07.584Z,22.53
2019-02-21T05:19:36.155Z,24.40
2019-02-21T05:22:04.685Z,23.90
2019-02-21T05:24:33.175Z,24.10
2019-02-21T05:27:03.289Z,25.37
2019-02-21T05:29:31.857Z,25.23
2019-02-21T05:32:17.048Z,25.37
2019-02-21T05:34:49.717Z,24.73
2019-02-21T05:37:19.856Z,25.40
2019-02-21T05:39:52.826Z,23.80
2019-02-21T05:42:22.946Z,23.90
2019-02-21T05:45:11.034Z,25.63
2019-02-21T05:47:46.697Z,23.73
2019-02-21T05:50:22.371Z,26.63
2019-02-21T05:52:52.467Z,26.97
2019-02-21T05:55:25.581Z,26.80
2019-02-21T05:57:55.748Z,26.63
2019-02-21T06:00:37.741Z,26.80
2019-02-21T06:03:17.149Z,27.63
2019-02-21T06:05:56.330Z,27.40
2019-02-21T06:08:34.893Z,24.57
2019-02-21T06:11:14.132Z,27.70
2019-02-21T06:13:44.813Z,26.90
2019-02-21T06:16:32.687Z,28.07
2019-02-21T06:19:03.299Z,26.53
2019-02-21T06:21:33.395Z,27.20
2019-02-21T06:24:03.494Z,27.17
2019-02-21T06:26:33.618Z,30.00
2019-02-21T06:29:03.828Z,29.03
2019-02-21T06:31:32.539Z,28.10
2019-02-21T06:34:01.044Z,27.73
2019-02-21T06:36:29.656Z,26.87
2019-02-21T06:38:58.221Z,27.53
2019-02-21T06:41:26.708Z,28.60
2019-02-21T06:43:56.881Z,27.20
2019-02-21T06:46:25.571Z,27.90
2019-02-21T06:48:54.067Z,28.00
2019-02-21T06:51:22.528Z,29.87
2019-02-21T06:53:53.102Z,29.80
2019-02-21T06:56:21.211Z,28.97
2019-02-21T06:58:49.727Z,29.93
2019-02-21T07:01:26.420Z,29.03
2019-02-21T07:03:48.378Z,30.77
2019-02-21T07:06:19.098Z,30.80
2019-02-21T07:08:47.160Z,31.43
2019-02-21T07:11:15.724Z,31.03
2019-02-21T07:13:44.256Z,30.87
2019-02-21T07:16:13.231Z,29.87
2019-02-21T07:18:41.875Z,29.60
2019-02-21T07:21:10.371Z,29.10
2019-02-21T07:23:43.518Z,29.47
2019-02-21T07:26:09.258Z,27.83
2019-02-21T07:28:37.836Z,30.40
2019-02-21T07:31:06.381Z,29.13
2019-02-21T07:33:34.852Z,28.63
2019-02-21T07:36:03.486Z,30.80
2019-02-21T07:38:32.052Z,29.50
2019-02-21T07:41:00.754Z,28.27
2019-02-21T07:43:29.529Z,28.53
2019-02-21T07:45:58.028Z,27.90
2019-02-21T07:48:26.501Z,28.20
2019-02-21T07:50:55.068Z,27.93
2019-02-21T07:53:23.534Z,26.47
2019-02-21T07:55:52.103Z,27.47
2019-02-21T07:58:20.605Z,28.00
2019-02-21T08:00:49.146Z,27.53
2019-02-21T08:03:29.563Z,25.87
2019-02-21T08:05:47.916Z,29.53
2019-02-21T08:11:39.437Z,26.50
2019-02-21T08:14:12.014Z,27.20
2019-02-21T08:16:40.630Z,26.27
2019-02-21T08:19:09.163Z,27.03
2019-02-21T08:21:37.892Z,26.20
2019-02-21T08:24:06.503Z,25.17
2019-02-21T08:26:35.142Z,20.30
2019-02-21T08:29:06.041Z,26.77
2019-02-21T08:31:36.544Z,24.37
2019-02-21T08:34:09.883Z,23.57
2019-02-21T08:36:38.484Z,25.40
2019-02-21T08:39:08.955Z,25.00
2019-02-21T08:41:37.603Z,24.83
2019-02-21T08:44:06.133Z,24.90
2019-02-21T08:46:34.625Z,26.03
2019-02-21T08:49:03.169Z,22.03
2019-02-21T08:51:31.769Z,24.93
2019-02-21T08:54:00.339Z,22.50
2019-02-21T08:56:29.970Z,23.33
2019-02-21T08:58:59.038Z,23.97
2019-02-21T09:01:28.662Z,23.57
2019-02-21T09:03:57.263Z,24.80
2019-02-21T09:06:25.792Z,23.27
2019-02-21T09:08:54.449Z,22.47
2019-02-21T09:11:23.035Z,23.47
2019-02-21T09:13:51.573Z,23.97
2019-02-21T09:16:20.139Z,22.17
2019-02-21T09:18:48.691Z,23.77
2019-02-21T09:21:17.159Z,20.63
2019-02-21T09:23:45.647Z,23.03
2019-02-21T09:26:14.116Z,22.67
2019-02-21T09:28:42.754Z,22.00
2019-02-21T09:31:11.251Z,22.30
2019-02-21T09:33:39.718Z,21.93
2019-02-21T09:36:08.255Z,22.40
2019-02-21T09:38:37.040Z,21.23
2019-02-21T09:41:05.722Z,20.00
2019-02-21T09:43:34.286Z,20.97
2019-02-21T09:46:02.960Z,19.87
2019-02-21T09:48:31.462Z,22.40
2019-02-21T09:51:00.008Z,23.17
2019-02-21T09:53:28.478Z,21.87
2019-02-21T09:55:57.041Z,21.80
2019-02-21T09:58:25.619Z,20.27
2019-02-21T10:00:54.089Z,22.37
2019-02-21T10:03:22.651Z,21.57
2019-02-21T10:05:51.299Z,21.67
2019-02-21T10:08:21.829Z,23.27
2019-02-21T10:10:49.981Z,24.13
2019-02-21T10:13:18.540Z,25.80
2019-02-21T10:15:47.227Z,26.57
2019-02-21T10:18:15.759Z,26.70
2019-02-21T10:20:44.224Z,26.37
2019-02-21T10:23:13.037Z,27.10
2019-02-21T10:25:41.586Z,27.23
2019-02-21T10:28:10.075Z,28.90
2019-02-21T10:30:38.535Z,28.23
2019-02-21T10:33:07.108Z,26.30
2019-02-21T10:35:35.674Z,28.60
2019-02-21T10:38:04.240Z,27.27
2019-02-21T10:40:33.483Z,22.63
2019-02-21T10:43:02.154Z,26.80
2019-02-21T10:45:30.720Z,26.67
2019-02-21T10:47:59.232Z,24.30
2019-02-21T10:50:28.048Z,28.47
2019-02-21T10:52:56.516Z,25.17
2019-02-21T10:55:25.082Z,27.77
2019-02-21T10:57:53.618Z,24.33
2019-02-21T11:00:25.824Z,23.90
2019-02-21T11:02:54.619Z,27.70
2019-02-21T11:05:23.387Z,23.60
2019-02-21T11:07:52.083Z,26.57
2019-02-21T11:10:28.640Z,25.93
2019-02-21T11:12:57.545Z,28.53
2019-02-21T11:15:26.654Z,28.10
2019-02-21T11:17:55.271Z,23.03
2019-02-21T11:20:23.871Z,24.97
2019-02-21T11:22:52.431Z,24.93
2019-02-21T11:25:20.996Z,21.37
2019-02-21T11:27:49.528Z,24.23
2019-02-21T11:30:21.547Z,23.43
2019-02-21T11:32:50.129Z,26.67
2019-02-21T11:35:18.843Z,26.97
2019-02-21T11:37:47.714Z,24.60
2019-02-21T11:40:17.404Z,22.10
2019-02-21T11:42:46.124Z,18.80
2019-02-21T11:45:18.621Z,21.33
2019-02-21T11:47:47.352Z,22.27
2019-02-21T11:50:17.427Z,25.40
2019-02-21T11:52:45.983Z,24.87
2019-02-21T11:55:22.299Z,20.50
2019-02-21T11:57:51.006Z,23.23
2019-02-21T12:00:21.657Z,21.47
2019-02-21T12:02:50.260Z,21.97
2019-02-21T12:05:30.252Z,21.03
2019-02-21T12:07:49.164Z,18.73
2019-02-21T12:10:17.664Z,19.17
2019-02-21T12:12:46.277Z,19.27
2019-02-21T12:15:16.085Z,18.97
2019-02-21T12:17:44.633Z,20.30
2019-02-21T12:20:14.971Z,22.03
2019-02-21T12:22:43.507Z,19.60
2019-02-21T12:25:14.551Z,19.60
2019-02-21T12:27:43.132Z,21.13
2019-02-21T12:30:14.241Z,20.63
2019-02-21T12:32:42.779Z,23.23
2019-02-21T12:35:11.716Z,22.53
2019-02-21T12:37:40.325Z,18.40
2019-02-21T12:40:14.784Z,22.40
2019-02-21T12:42:43.294Z,21.03
2019-02-21T12:45:14.520Z,17.37
2019-02-21T12:47:50.703Z,19.57
2019-02-21T12:50:14.130Z,24.33
2019-02-21T12:52:42.692Z,22.33
2019-02-21T12:55:11.795Z,22.47
2019-02-21T12:57:40.477Z,21.57
2019-02-21T13:00:11.670Z,21.13
2019-02-21T13:02:40.211Z,18.63
2019-02-21T13:05:08.856Z,18.77
2019-02-21T13:07:37.396Z,16.30
2019-02-21T13:10:08.896Z,19.47
2019-02-21T13:12:37.476Z,18.93
2019-02-21T13:15:11.380Z,18.70
2019-02-21T13:17:39.987Z,18.67
2019-02-21T13:20:10.872Z,16.73
2019-02-21T13:22:39.377Z,15.23
2019-02-21T13:25:10.752Z,16.43
2019-02-21T13:27:39.387Z,13.20
2019-02-21T13:30:13.067Z,13.37
2019-02-21T13:32:41.649Z,12.23
2019-02-21T13:35:10.970Z,10.17
2019-02-21T13:37:39.529Z,14.07
2019-02-21T13:40:15.843Z,13.13
2019-02-21T13:42:44.697Z,10.50
2019-02-21T13:45:18.067Z,10.63
2019-02-21T13:47:46.816Z,13.97
2019-02-21T13:50:17.289Z,13.00
2019-02-21T13:52:45.858Z,9.23
2019-02-21T13:55:14.659Z,15.33
2019-02-21T13:57:43.224Z,13.27
2019-02-21T14:00:20.226Z,11.40
2019-02-21T14:02:48.896Z,15.33
2019-02-21T14:05:17.484Z,12.37
2019-02-21T14:07:46.017Z,14.53
2019-02-21T14:10:14.963Z,14.50
2019-02-21T14:12:43.602Z,9.13
2019-02-21T14:15:14.816Z,16.53
2019-02-21T14:17:43.284Z,16.17
2019-02-21T14:20:11.980Z,13.30
2019-02-21T14:22:40.566Z,17.70
2019-02-21T14:25:10.890Z,19.37
2019-02-21T14:27:39.553Z,19.57
2019-02-21T14:30:16.322Z,18.97
2019-02-21T14:32:44.858Z,19.10
2019-02-21T14:35:14.336Z,19.03
2019-02-21T14:37:42.992Z,19.03
2019-02-21T14:40:12.801Z,18.43
2019-02-21T14:42:41.447Z,14.50
2019-02-21T14:45:15.743Z,16.57
2019-02-21T14:47:44.328Z,19.60
2019-02-21T14:50:13.407Z,20.00
2019-02-21T14:52:42.137Z,20.30
2019-02-21T14:55:18.186Z,20.97
2019-02-21T14:57:46.999Z,19.53
2019-02-21T15:00:20.909Z,20.67
2019-02-21T15:02:49.515Z,19.97
2019-02-21T15:05:19.190Z,22.03
2019-02-21T15:07:48.668Z,21.17
2019-02-21T15:10:17.319Z,20.47
2019-02-21T15:12:45.951Z,21.70
2019-02-21T15:15:17.126Z,22.70
2019-02-21T15:17:45.772Z,22.37
2019-02-21T15:20:15.950Z,22.50
2019-02-21T15:22:44.460Z,24.70
2019-02-21T15:25:13.368Z,25.87
2019-02-21T15:27:41.932Z,24.13
2019-02-21T15:30:13.144Z,22.20
2019-02-21T15:32:41.640Z,23.17
2019-02-21T15:35:10.486Z,23.50
2019-02-21T15:37:39.121Z,23.40
2019-02-21T15:40:09.682Z,22.53
2019-02-21T15:42:38.217Z,21.60
2019-02-21T15:45:22.342Z,22.17
2019-02-21T15:47:43.093Z,21.60
2019-02-21T15:50:13.735Z,21.43
2019-02-21T15:52:44.586Z,19.70
2019-02-21T15:55:15.776Z,19.83
2019-02-21T15:57:44.244Z,19.47
2019-02-21T16:00:19.783Z,19.10
2019-02-21T16:02:48.262Z,19.70
2019-02-21T16:05:16.835Z,18.13
2019-02-21T16:07:45.515Z,18.27
2019-02-21T16:10:17.112Z,17.83
2019-02-21T16:12:46.057Z,17.83
2019-02-21T16:15:16.343Z,17.97
2019-02-21T16:17:45.378Z,17.17
2019-02-21T16:20:18.215Z,18.30
2019-02-21T16:22:46.770Z,17.57
2019-02-21T16:25:20.805Z,16.93
2019-02-21T16:27:49.375Z,16.73
2019-02-21T16:30:17.879Z,16.83
2019-02-21T16:32:46.463Z,15.30
2019-02-21T16:35:15.568Z,14.93
2019-02-21T16:37:44.084Z,16.53
2019-02-21T16:40:17.759Z,16.47
2019-02-21T16:42:46.396Z,16.37
2019-02-21T16:45:19.361Z,17.10
2019-02-21T16:47:47.934Z,15.80
2019-02-21T16:50:16.550Z,15.53
2019-02-21T16:52:45.116Z,15.40
2019-02-21T16:55:20.934Z,18.57
2019-02-21T16:57:49.749Z,15.50
2019-02-21T17:00:22.309Z,16.23
2019-02-21T17:02:51.034Z,15.00
2019-02-21T17:05:19.869Z,11.40
2019-02-21T17:07:48.427Z,15.40
2019-02-21T17:10:17.937Z,17.00
2019-02-21T17:12:46.474Z,18.27
2019-02-21T17:15:18.368Z,11.67
2019-02-21T17:17:46.907Z,17.13
2019-02-21T17:20:20.746Z,16.50
2019-02-21T17:22:49.356Z,14.97
2019-02-21T17:25:17.934Z,16.10
2019-02-21T17:27:46.602Z,12.43
2019-02-21T17:30:16.618Z,16.37
2019-02-21T17:32:45.339Z,16.00
2019-02-21T17:35:14.559Z,15.53
2019-02-21T17:37:43.096Z,16.10
2019-02-21T17:40:20.124Z,16.90
2019-02-21T17:42:48.752Z,15.43
2019-02-21T17:45:17.311Z,16.87
2019-02-21T17:47:45.955Z,16.23
2019-02-21T17:50:16.488Z,14.23
2019-02-21T17:52:45.128Z,15.50
2019-02-21T17:55:14.367Z,16.47
2019-02-21T17:57:43.016Z,10.53
2019-02-21T18:00:21.869Z,13.13
2019-02-21T18:02:50.485Z,12.57
2019-02-21T18:05:19.069Z,6.93
2019-02-21T18:07:47.636Z,8.30
2019-02-21T18:10:17.256Z,14.10
2019-02-21T18:12:45.903Z,18.23
2019-02-21T18:15:15.681Z,17.73
2019-02-21T18:17:44.218Z,16.87
2019-02-21T18:20:14.333Z,18.90
2019-02-21T18:22:47.669Z,17.00
2019-02-21T18:25:35.104Z,21.43
2019-02-21T18:28:03.701Z,21.53
2019-02-21T18:30:37.188Z,23.77
2019-02-21T18:33:05.750Z,25.85
2019-02-21T18:35:34.381Z,22.53
2019-02-21T18:38:03.027Z,20.27
2019-02-21T18:40:32.958Z,23.73
2019-02-21T18:43:03.249Z,24.27
2019-02-21T18:45:31.953Z,24.50
2019-02-21T18:48:00.568Z,27.25
2019-02-21T18:50:37.701Z,26.03
2019-02-21T18:52:59.719Z,25.77
2019-02-21T18:55:28.288Z,24.30
2019-02-21T18:57:56.761Z,26.47
2019-02-21T19:00:26.476Z,28.17
2019-02-21T19:02:55.761Z,28.67
2019-02-21T19:05:34.915Z,29.40
2019-02-21T19:08:02.139Z,27.80
2019-02-21T19:10:24.976Z,29.03
2019-02-21T19:12:53.508Z,29.23
2019-02-21T19:15:22.693Z,27.67
2019-02-21T19:17:51.295Z,28.70
2019-02-21T19:20:22.098Z,30.50
2019-02-21T19:22:50.699Z,33.03
2019-02-21T19:25:19.406Z,32.40
2019-02-21T19:27:48.015Z,35.43
2019-02-21T19:30:25.821Z,36.03
2019-02-21T19:32:54.586Z,37.37
2019-02-21T19:35:23.367Z,37.73
2019-02-21T19:37:51.857Z,38.83
2019-02-21T19:40:20.531Z,37.47
2019-02-21T19:42:49.257Z,39.80
2019-02-21T19:45:17.892Z,38.60
2019-02-21T19:47:46.548Z,38.77
2019-02-21T19:50:15.306Z,32.07
2019-02-21T19:52:43.947Z,38.90
2019-02-21T19:55:12.855Z,40.60
2019-02-21T19:57:41.552Z,39.57
2019-02-21T20:00:26.348Z,37.80
2019-02-21T20:02:55.179Z,40.67
2019-02-21T20:05:24.103Z,44.47
2019-02-21T20:07:52.668Z,46.90
2019-02-21T20:10:21.470Z,45.00
2019-02-21T20:12:49.992Z,47.50
2019-02-21T20:15:18.631Z,49.67
2019-02-21T20:17:47.144Z,51.27
2019-02-21T20:20:24.712Z,48.73
2019-02-21T20:22:53.321Z,54.90
2019-02-21T20:25:22.264Z,56.67
2019-02-21T20:27:50.754Z,54.73
2019-02-21T20:30:22.418Z,54.33
2019-02-21T20:32:51.058Z,57.87
2019-02-21T20:35:19.958Z,57.40
2019-02-21T20:37:48.579Z,57.50
2019-02-21T20:40:17.120Z,52.30
2019-02-21T20:42:45.770Z,57.13
2019-02-21T20:45:15.177Z,56.90
2019-02-21T20:47:43.707Z,60.00
2019-02-21T20:50:13.384Z,59.17
2019-02-21T20:52:42.215Z,58.67
2019-02-21T20:55:11.877Z,62.90
2019-02-21T20:57:40.573Z,59.80
2019-02-21T21:00:17.749Z,60.60
2019-02-21T21:02:46.315Z,57.53
2019-02-21T21:05:15.368Z,63.07
2019-02-21T21:07:43.984Z,61.90
2019-02-21T21:10:17.275Z,63.37
2019-02-21T21:12:50.405Z,63.60
2019-02-21T21:15:24.098Z,57.27
2019-02-21T21:17:54.533Z,40.37
2019-02-21T21:20:25.918Z,49.87
2019-02-21T21:22:54.063Z,62.70
2019-02-21T21:25:22.532Z,55.33
2019-02-21T21:27:51.235Z,52.27
2019-02-21T21:30:20.982Z,52.30
2019-02-21T21:32:49.520Z,54.60
2019-02-21T21:35:18.640Z,51.67
2019-02-21T21:37:47.285Z,50.20
2019-02-21T21:40:19.810Z,49.40
2019-02-21T21:42:48.347Z,48.33
2019-02-21T21:45:17.978Z,46.00
2019-02-21T21:47:46.591Z,39.03
2019-02-21T21:50:17.475Z,45.97
2019-02-21T21:52:46.021Z,41.37
2019-02-21T21:55:15.299Z,47.97
2019-02-21T21:57:44.071Z,35.23
2019-02-21T22:01:14.594Z,40.20
2019-02-21T22:03:43.224Z,39.13
2019-02-21T22:06:12.851Z,37.83
2019-02-21T22:08:41.459Z,33.83
2019-02-21T22:11:10.068Z,37.40
2019-02-21T22:13:38.646Z,38.17
2019-02-21T22:16:07.384Z,39.47
2019-02-21T22:18:40.633Z,35.73
2019-02-21T22:21:10.925Z,36.03
2019-02-21T22:23:39.453Z,38.00
2019-02-21T22:26:08.014Z,39.07
2019-02-21T22:28:36.609Z,39.77
2019-02-21T22:31:05.228Z,39.50
2019-02-21T22:33:36.293Z,38.97
2019-02-21T22:36:05.192Z,36.03
2019-02-21T22:38:34.118Z,37.83
2019-02-21T22:41:02.649Z,38.10
2019-02-21T22:43:31.353Z,39.17
2019-02-21T22:46:00.500Z,39.47
2019-02-21T22:48:29.916Z,36.63
2019-02-21T22:50:58.452Z,36.63
2019-02-21T22:53:27.040Z,44.20
2019-02-21T22:55:55.594Z,37.67
2019-02-21T22:58:24.068Z,36.27
2019-02-21T23:01:01.383Z,35.97
2019-02-21T23:03:38.851Z,37.87
2019-02-21T23:06:25.279Z,40.60
2019-02-21T23:58:09.103Z,30.83
